Time,TemperatureF,DewpointF,PressureIn,WindDirection,WindDirectionDegrees,WindSpeedMPH,WindSpeedGustMPH,Humidity,HourlyPrecipIn,Conditions,Clouds,dailyrainin,SoftwareType,DateUTC
2013-05-13 00:00:00,44.0,37.0,30.14,SW,233,0.0,1.0,75,0.00,,,0.00,weatherlink.com 1.10,2013-05-13 04:00:00,
2013-05-13 00:16:00,43.4,37.0,30.13,SW,233,0.0,0.0,77,0.00,,,0.00,weatherlink.com 1.10,2013-05-13 04:16:00,
2013-05-13 00:31:00,43.0,36.0,30.14,SW,233,0.0,0.0,77,0.00,,,0.00,weatherlink.com 1.10,2013-05-13 04:31:00,
2013-05-13 00:46:00,42.4,36.0,30.14,SW,233,0.0,0.0,79,0.00,,,0.00,weatherlink.com 1.10,2013-05-13 04:46:00,
2013-05-13 01:01:00,41.9,36.0,30.14,SW,233,0.0,0.0,80,0.00,,,0.00,weatherlink.com 1.10,2013-05-13 05:01:00,
2013-05-13 01:16:00,41.4,36.0,30.14,SW,233,0.0,0.0,81,0.00,,,0.00,weatherlink.com 1.10,2013-05-13 05:16:00,
2013-05-13 01:31:00,41.5,36.0,30.13,SW,233,0.0,0.0,81,0.00,,,0.00,weatherlink.com 1.10,2013-05-13 05:31:00,
2013-05-13 01:46:00,41.2,36.0,30.13,SW,233,0.0,0.0,82,0.00,,,0.00,weatherlink.com 1.10,2013-05-13 05:46:00,
2013-05-13 02:01:00,40.8,36.0,30.13,SW,233,0.0,0.0,84,0.00,,,0.00,weatherlink.com 1.10,2013-05-13 06:01:00,
2013-05-13 02:16:00,40.8,36.0,30.13,SW,233,0.0,1.0,84,0.00,,,0.00,weatherlink.com 1.10,2013-05-13 06:16:00,
2013-05-13 02:31:00,40.4,36.0,30.13,SW,235,0.0,0.0,85,0.00,,,0.00,weatherlink.com 1.10,2013-05-13 06:31:00,
2013-05-13 02:46:00,39.8,36.0,30.12,SW,235,0.0,0.0,86,0.00,,,0.00,weatherlink.com 1.10,2013-05-13 06:46:00,
2013-05-13 03:01:00,39.6,36.0,30.12,SW,235,0.0,0.0,88,0.00,,,0.00,weatherlink.com 1.10,2013-05-13 07:01:00,
2013-05-13 03:16:00,39.5,36.0,30.12,SW,235,0.0,0.0,87,0.00,,,0.00,weatherlink.com 1.10,2013-05-13 07:16:00,
2013-05-13 03:31:00,39.4,36.0,30.12,SW,235,0.0,0.0,87,0.00,,,0.00,weatherlink.com 1.10,2013-05-13 07:31:00,
2013-05-13 03:46:00,39.4,36.0,30.12,SW,235,0.0,1.0,87,0.00,,,0.00,weatherlink.com 1.10,2013-05-13 07:46:00,
2013-05-13 04:01:00,39.1,36.0,30.12,SW,235,0.0,0.0,87,0.00,,,0.00,weatherlink.com 1.10,2013-05-13 08:01:00,
2013-05-13 04:16:00,38.9,36.0,30.12,SW,233,0.0,0.0,88,0.00,,,0.00,weatherlink.com 1.10,2013-05-13 08:16:00,
2013-05-13 04:31:00,38.7,36.0,30.13,SW,235,0.0,0.0,88,0.00,,,0.00,weatherlink.com 1.10,2013-05-13 08:31:00,
2013-05-13 04:46:00,38.7,36.0,30.13,SW,233,0.0,1.0,89,0.00,,,0.00,weatherlink.com 1.10,2013-05-13 08:46:00,
2013-05-13 05:01:00,38.3,36.0,30.13,WSW,238,0.0,0.0,90,0.00,,,0.00,weatherlink.com 1.10,2013-05-13 09:01:00,
2013-05-13 05:16:00,37.8,35.0,30.13,WSW,238,0.0,0.0,90,0.00,,,0.00,weatherlink.com 1.10,2013-05-13 09:16:00,
2013-05-13 05:31:00,37.9,36.0,30.13,WSW,238,0.0,0.0,91,0.00,,,0.00,weatherlink.com 1.10,2013-05-13 09:31:00,
2013-05-13 05:46:00,37.8,35.0,30.13,WSW,238,0.0,0.0,90,0.00,,,0.00,weatherlink.com 1.10,2013-05-13 09:46:00,
2013-05-13 06:01:00,37.4,35.0,30.13,WSW,238,0.0,0.0,91,0.00,,,0.00,weatherlink.com 1.10,2013-05-13 10:01:00,
2013-05-13 06:16:00,37.5,35.0,30.13,WSW,238,0.0,0.0,91,0.00,,,0.00,weatherlink.com 1.10,2013-05-13 10:16:00,
2013-05-13 06:31:00,37.1,35.0,30.14,WSW,238,0.0,0.0,91,0.00,,,0.00,weatherlink.com 1.10,2013-05-13 10:31:00,
2013-05-13 06:46:00,37.0,35.0,30.15,WSW,238,0.0,0.0,92,0.00,,,0.00,weatherlink.com 1.10,2013-05-13 10:46:00,
2013-05-13 07:01:00,37.2,35.0,30.15,WSW,238,0.0,0.0,92,0.00,,,0.00,weatherlink.com 1.10,2013-05-13 11:01:00,
2013-05-13 07:16:00,38.1,36.0,30.15,WSW,238,0.0,0.0,93,0.00,,,0.00,weatherlink.com 1.10,2013-05-13 11:16:00,
2013-05-13 07:31:00,40.6,38.0,30.16,WSW,256,0.0,1.0,90,0.00,,,0.00,weatherlink.com 1.10,2013-05-13 11:31:00,
2013-05-13 07:46:00,43.8,38.0,30.16,WNW,288,0.0,3.0,79,0.00,,,0.00,weatherlink.com 1.10,2013-05-13 11:46:00,
2013-05-13 08:02:00,45.9,38.0,30.17,West,271,0.0,2.0,75,0.00,,,0.00,weatherlink.com 1.10,2013-05-13 12:02:00,
2013-05-13 08:32:00,47.9,38.0,30.17,WSW,255,3.0,6.0,69,0.00,,,0.00,weatherlink.com 1.10,2013-05-13 12:32:00,
2013-05-13 08:47:00,49.0,39.0,30.18,WNW,284,3.0,6.0,69,0.00,,,0.00,weatherlink.com 1.10,2013-05-13 12:47:00,
2013-05-13 09:02:00,50.0,39.0,30.18,WSW,254,0.0,5.0,66,0.00,,,0.00,weatherlink.com 1.10,2013-05-13 13:02:00,
2013-05-13 09:17:00,51.4,39.0,30.19,North,4,0.0,7.0,64,0.00,,,0.00,weatherlink.com 1.10,2013-05-13 13:17:00,
2013-05-13 09:32:00,52.8,39.0,30.19,NNW,338,1.0,6.0,59,0.00,,,0.00,weatherlink.com 1.10,2013-05-13 13:32:00,
2013-05-13 09:47:00,54.0,39.0,30.19,NW,326,3.0,6.0,58,0.00,,,0.00,weatherlink.com 1.10,2013-05-13 13:47:00,
2013-05-13 10:02:00,55.6,38.0,30.20,NNW,344,1.0,6.0,52,0.00,,,0.00,weatherlink.com 1.10,2013-05-13 14:02:00,
2013-05-13 10:17:00,57.4,38.0,30.19,NNE,29,0.0,5.0,49,0.00,,,0.00,weatherlink.com 1.10,2013-05-13 14:17:00,
2013-05-13 10:32:00,58.1,39.0,30.19,West,263,0.0,10.0,49,0.00,,,0.00,weatherlink.com 1.10,2013-05-13 14:32:00,
2013-05-13 11:02:00,59.5,37.0,30.20,West,273,3.0,9.0,44,0.00,,,0.00,weatherlink.com 1.10,2013-05-13 15:02:00,
2013-05-13 11:17:00,59.6,36.0,30.20,NE,47,9.0,13.0,41,0.00,,,0.00,weatherlink.com 1.10,2013-05-13 15:17:00,
2013-05-13 11:32:00,60.4,33.0,30.20,WSW,257,2.0,12.0,36,0.00,,,0.00,weatherlink.com 1.10,2013-05-13 15:32:00,
2013-05-13 12:17:00,61.5,34.0,30.19,ENE,61,3.0,9.0,36,0.00,,,0.00,weatherlink.com 1.10,2013-05-13 16:17:00,
2013-05-13 12:47:00,62.5,34.0,30.19,NNE,32,3.0,9.0,34,0.00,,,0.00,weatherlink.com 1.10,2013-05-13 16:47:00,
2013-05-13 13:02:00,63.3,33.0,30.18,North,6,1.0,11.0,32,0.00,,,0.00,weatherlink.com 1.10,2013-05-13 17:02:00,
2013-05-13 13:18:00,63.3,34.0,30.18,NE,44,2.0,11.0,33,0.00,,,0.00,weatherlink.com 1.10,2013-05-13 17:18:00,
2013-05-13 13:47:00,64.7,34.0,30.17,WSW,245,5.0,11.0,32,0.00,,,0.00,weatherlink.com 1.10,2013-05-13 17:47:00,
2013-05-13 14:02:00,64.7,34.0,30.16,NNE,28,2.0,8.0,32,0.00,,,0.00,weatherlink.com 1.10,2013-05-13 18:02:00,
2013-05-13 14:33:00,65.3,34.0,30.15,WNW,285,6.0,12.0,31,0.00,,,0.00,weatherlink.com 1.10,2013-05-13 18:33:00,
2013-05-13 14:47:00,64.9,34.0,30.15,WNW,293,2.0,10.0,32,0.00,,,0.00,weatherlink.com 1.10,2013-05-13 18:47:00,
2013-05-13 15:02:00,66.7,35.0,30.15,NW,312,4.0,12.0,31,0.00,,,0.00,weatherlink.com 1.10,2013-05-13 19:02:00,
2013-05-13 15:17:00,67.2,33.0,30.15,NE,39,5.0,11.0,28,0.00,,,0.00,weatherlink.com 1.10,2013-05-13 19:17:00,
2013-05-13 15:32:00,67.1,35.0,30.14,NNE,26,4.0,11.0,31,0.00,,,0.00,weatherlink.com 1.10,2013-05-13 19:32:00,
2013-05-13 15:47:00,66.1,33.0,30.14,West,274,5.0,8.0,29,0.00,,,0.00,weatherlink.com 1.10,2013-05-13 19:47:00,
2013-05-13 16:02:00,66.3,32.0,30.14,SSW,210,5.0,9.0,28,0.00,,,0.00,weatherlink.com 1.10,2013-05-13 20:02:00,
2013-05-13 16:17:00,67.4,36.0,30.13,NE,49,3.0,10.0,31,0.00,,,0.00,weatherlink.com 1.10,2013-05-13 20:17:00,
2013-05-13 16:33:00,67.3,32.0,30.12,WNW,297,7.0,11.0,27,0.00,,,0.00,weatherlink.com 1.10,2013-05-13 20:33:00,
2013-05-13 16:47:00,67.6,33.0,30.12,NNE,20,1.0,8.0,28,0.00,,,0.00,weatherlink.com 1.10,2013-05-13 20:47:00,
2013-05-13 17:02:00,67.4,32.0,30.12,NNW,347,1.0,9.0,27,0.00,,,0.00,weatherlink.com 1.10,2013-05-13 21:02:00,
2013-05-13 17:18:00,68.1,33.0,30.11,NNE,22,4.0,9.0,27,0.00,,,0.00,weatherlink.com 1.10,2013-05-13 21:18:00,
2013-05-13 17:33:00,67.8,33.0,30.11,NNE,32,0.0,9.0,28,0.00,,,0.00,weatherlink.com 1.10,2013-05-13 21:33:00,
2013-05-13 17:48:00,67.6,32.0,30.11,WNW,283,4.0,8.0,27,0.00,,,0.00,weatherlink.com 1.10,2013-05-13 21:48:00,
2013-05-13 18:03:00,67.5,33.0,30.11,NNW,345,1.0,16.0,28,0.00,,,0.00,weatherlink.com 1.10,2013-05-13 22:03:00,
2013-05-13 18:18:00,67.9,33.0,30.11,NNE,26,2.0,9.0,28,0.00,,,0.00,weatherlink.com 1.10,2013-05-13 22:18:00,
2013-05-13 18:48:00,67.3,32.0,30.11,NW,312,7.0,9.0,27,0.00,,,0.00,weatherlink.com 1.10,2013-05-13 22:48:00,
2013-05-13 19:18:00,66.6,31.0,30.10,West,281,1.0,8.0,27,0.00,,,0.00,weatherlink.com 1.10,2013-05-13 23:18:00,
2013-05-13 19:33:00,65.9,33.0,30.10,West,278,2.0,3.0,29,0.00,,,0.00,weatherlink.com 1.10,2013-05-13 23:33:00,
2013-05-13 19:48:00,64.6,32.0,30.10,NW,322,2.0,4.0,30,0.00,,,0.00,weatherlink.com 1.10,2013-05-13 23:48:00,
2013-05-13 20:03:00,63.5,33.0,30.11,WNW,282,4.0,4.0,32,0.00,,,0.00,weatherlink.com 1.10,2013-05-14 00:03:00,
2013-05-13 20:18:00,62.5,33.0,30.11,SW,218,0.0,2.0,33,0.00,,,0.00,weatherlink.com 1.10,2013-05-14 00:18:00,
2013-05-13 20:33:00,61.5,35.0,30.11,WNW,283,0.0,1.0,38,0.00,,,0.00,weatherlink.com 1.10,2013-05-14 00:33:00,
2013-05-13 20:48:00,58.9,40.0,30.12,West,276,0.0,0.0,49,0.00,,,0.00,weatherlink.com 1.10,2013-05-14 00:48:00,
2013-05-13 21:03:00,56.6,41.0,30.12,WSW,243,0.0,1.0,56,0.00,,,0.00,weatherlink.com 1.10,2013-05-14 01:03:00,
2013-05-13 21:18:00,55.1,39.0,30.12,WSW,243,0.0,0.0,56,0.00,,,0.00,weatherlink.com 1.10,2013-05-14 01:18:00,
2013-05-13 21:33:00,53.9,39.0,30.13,WSW,243,0.0,0.0,58,0.00,,,0.00,weatherlink.com 1.10,2013-05-14 01:33:00,
2013-05-13 21:48:00,53.0,39.0,30.13,WSW,243,0.0,0.0,59,0.00,,,0.00,weatherlink.com 1.10,2013-05-14 01:48:00,
2013-05-13 22:03:00,52.6,39.0,30.13,WSW,243,0.0,0.0,61,0.00,,,0.00,weatherlink.com 1.10,2013-05-14 02:03:00,
2013-05-13 22:33:00,51.8,40.0,30.14,WSW,243,0.0,0.0,64,0.00,,,0.00,weatherlink.com 1.10,2013-05-14 02:33:00,
2013-05-13 22:48:00,51.3,39.0,30.14,WSW,243,0.0,1.0,64,0.00,,,0.00,weatherlink.com 1.10,2013-05-14 02:48:00,
2013-05-13 23:18:00,49.9,38.0,30.14,WSW,243,0.0,0.0,63,0.00,,,0.00,weatherlink.com 1.10,2013-05-14 03:18:00,
2013-05-13 23:33:00,49.2,39.0,30.14,WSW,243,0.0,0.0,67,0.00,,,0.00,weatherlink.com 1.10,2013-05-14 03:33:00,
2013-05-13 23:48:00,48.8,39.0,30.14,West,269,0.0,0.0,68,0.00,,,0.00,weatherlink.com 1.10,2013-05-14 03:48:00,